sensor_id;sensor_type;location;lat;lon;timestamp;temperature;humidity
56512;DHT22;42408;53.238;5.686;2023-02-24T00:00:08;4.50;99.90
56512;DHT22;42408;53.238;5.686;2023-02-24T00:02:54;4.60;99.90
56512;DHT22;42408;53.238;5.686;2023-02-24T00:05:20;4.60;99.90
56512;DHT22;42408;53.238;5.686;2023-02-24T00:07:48;4.70;99.90
56512;DHT22;42408;53.238;5.686;2023-02-24T00:10:14;4.70;99.90
56512;DHT22;42408;53.238;5.686;2023-02-24T00:12:44;4.70;99.90
56512;DHT22;42408;53.238;5.686;2023-02-24T00:15:13;4.60;99.90
56512;DHT22;42408;53.238;5.686;2023-02-24T00:17:40;4.60;99.90
56512;DHT22;42408;53.238;5.686;2023-02-24T00:20:06;4.60;99.90
56512;DHT22;42408;53.238;5.686;2023-02-24T00:22:32;4.60;99.90
56512;DHT22;42408;53.238;5.686;2023-02-24T00:24:58;4.60;99.90
56512;DHT22;42408;53.238;5.686;2023-02-24T00:27:27;4.60;99.90
56512;DHT22;42408;53.238;5.686;2023-02-24T00:29:52;4.60;99.90
56512;DHT22;42408;53.238;5.686;2023-02-24T00:32:18;4.60;99.90
56512;DHT22;42408;53.238;5.686;2023-02-24T00:34:44;4.60;99.90
56512;DHT22;42408;53.238;5.686;2023-02-24T00:37:10;4.50;99.90
56512;DHT22;42408;53.238;5.686;2023-02-24T00:39:37;4.50;99.90
56512;DHT22;42408;53.238;5.686;2023-02-24T00:42:06;4.50;99.90
56512;DHT22;42408;53.238;5.686;2023-02-24T00:44:44;4.50;99.90
56512;DHT22;42408;53.238;5.686;2023-02-24T00:47:12;4.50;99.90
56512;DHT22;42408;53.238;5.686;2023-02-24T00:49:39;4.50;99.90
56512;DHT22;42408;53.238;5.686;2023-02-24T00:52:08;4.40;99.90
56512;DHT22;42408;53.238;5.686;2023-02-24T00:54:36;4.40;99.90
56512;DHT22;42408;53.238;5.686;2023-02-24T00:57:02;4.40;99.90
56512;DHT22;42408;53.238;5.686;2023-02-24T00:59:28;4.40;99.90
56512;DHT22;42408;53.238;5.686;2023-02-24T01:01:54;4.30;99.90
56512;DHT22;42408;53.238;5.686;2023-02-24T01:04:20;4.30;99.90
56512;DHT22;42408;53.238;5.686;2023-02-24T01:06:49;4.30;99.90
56512;DHT22;42408;53.238;5.686;2023-02-24T01:09:18;4.20;99.90
56512;DHT22;42408;53.238;5.686;2023-02-24T01:11:46;4.20;99.90
56512;DHT22;42408;53.238;5.686;2023-02-24T01:14:32;4.20;99.90
56512;DHT22;42408;53.238;5.686;2023-02-24T01:16:58;4.20;99.90
56512;DHT22;42408;53.238;5.686;2023-02-24T01:19:28;4.20;99.90
56512;DHT22;42408;53.238;5.686;2023-02-24T01:21:55;4.30;99.90
56512;DHT22;42408;53.238;5.686;2023-02-24T01:24:25;4.30;99.90
56512;DHT22;42408;53.238;5.686;2023-02-24T01:26:51;4.30;99.90
56512;DHT22;42408;53.238;5.686;2023-02-24T01:29:18;4.30;99.90
56512;DHT22;42408;53.238;5.686;2023-02-24T01:31:44;4.40;99.90
56512;DHT22;42408;53.238;5.686;2023-02-24T01:34:11;4.40;99.90
56512;DHT22;42408;53.238;5.686;2023-02-24T01:36:39;4.40;99.90
56512;DHT22;42408;53.238;5.686;2023-02-24T01:39:05;4.60;99.90
56512;DHT22;42408;53.238;5.686;2023-02-24T01:41:40;4.80;99.90
56512;DHT22;42408;53.238;5.686;2023-02-24T01:44:56;4.60;99.90
56512;DHT22;42408;53.238;5.686;2023-02-24T01:46:54;4.70;99.90
56512;DHT22;42408;53.238;5.686;2023-02-24T01:52:12;4.70;99.90
56512;DHT22;42408;53.238;5.686;2023-02-24T01:54:43;4.70;99.90
56512;DHT22;42408;53.238;5.686;2023-02-24T01:57:14;4.70;99.90
56512;DHT22;42408;53.238;5.686;2023-02-24T01:59:43;4.70;99.90
56512;DHT22;42408;53.238;5.686;2023-02-24T02:02:09;4.70;99.90
56512;DHT22;42408;53.238;5.686;2023-02-24T02:04:39;4.70;99.90
56512;DHT22;42408;53.238;5.686;2023-02-24T02:07:07;4.70;99.90
56512;DHT22;42408;53.238;5.686;2023-02-24T02:09:36;4.70;99.90
56512;DHT22;42408;53.238;5.686;2023-02-24T02:12:02;4.70;99.90
56512;DHT22;42408;53.238;5.686;2023-02-24T02:14:29;4.70;99.90
56512;DHT22;42408;53.238;5.686;2023-02-24T02:34:31;4.80;99.90
56512;DHT22;42408;53.238;5.686;2023-02-24T02:37:21;5.80;99.90
56512;DHT22;42408;53.238;5.686;2023-02-24T02:40:11;4.70;99.90
56512;DHT22;42408;53.238;5.686;2023-02-24T02:42:55;4.80;99.90
56512;DHT22;42408;53.238;5.686;2023-02-24T02:45:35;4.80;99.90
56512;DHT22;42408;53.238;5.686;2023-02-24T02:50:57;4.80;99.90
56512;DHT22;42408;53.238;5.686;2023-02-24T02:53:55;4.80;99.90
56512;DHT22;42408;53.238;5.686;2023-02-24T02:56:33;4.90;99.90
56512;DHT22;42408;53.238;5.686;2023-02-24T02:59:01;4.90;99.90
56512;DHT22;42408;53.238;5.686;2023-02-24T03:01:31;4.80;99.90
56512;DHT22;42408;53.238;5.686;2023-02-24T03:04:02;4.90;99.90
56512;DHT22;42408;53.238;5.686;2023-02-24T03:06:46;4.90;99.90
56512;DHT22;42408;53.238;5.686;2023-02-24T03:09:23;4.90;99.90
56512;DHT22;42408;53.238;5.686;2023-02-24T03:11:57;4.90;99.90
56512;DHT22;42408;53.238;5.686;2023-02-24T03:14:28;4.90;99.90
56512;DHT22;42408;53.238;5.686;2023-02-24T03:16:58;4.90;99.90
56512;DHT22;42408;53.238;5.686;2023-02-24T03:19:28;4.90;99.90
56512;DHT22;42408;53.238;5.686;2023-02-24T03:22:21;5.00;99.90
56512;DHT22;42408;53.238;5.686;2023-02-24T03:24:50;5.00;99.90
56512;DHT22;42408;53.238;5.686;2023-02-24T03:27:26;5.00;99.90
56512;DHT22;42408;53.238;5.686;2023-02-24T03:29:59;5.00;99.90
56512;DHT22;42408;53.238;5.686;2023-02-24T03:32:28;5.10;99.90
56512;DHT22;42408;53.238;5.686;2023-02-24T03:37:27;5.10;99.90
56512;DHT22;42408;53.238;5.686;2023-02-24T03:39:57;5.10;99.90
56512;DHT22;42408;53.238;5.686;2023-02-24T03:42:26;5.10;99.90
56512;DHT22;42408;53.238;5.686;2023-02-24T03:44:54;5.20;99.90
56512;DHT22;42408;53.238;5.686;2023-02-24T03:47:23;5.20;99.90
56512;DHT22;42408;53.238;5.686;2023-02-24T03:49:50;5.20;99.90
56512;DHT22;42408;53.238;5.686;2023-02-24T03:52:32;5.20;99.90
56512;DHT22;42408;53.238;5.686;2023-02-24T03:58:13;5.20;99.90
56512;DHT22;42408;53.238;5.686;2023-02-24T04:03:50;5.30;99.90
56512;DHT22;42408;53.238;5.686;2023-02-24T04:06:44;5.30;99.90
56512;DHT22;42408;53.238;5.686;2023-02-24T04:12:15;5.30;99.90
56512;DHT22;42408;53.238;5.686;2023-02-24T04:15:08;5.30;99.90
56512;DHT22;42408;53.238;5.686;2023-02-24T04:17:52;5.40;99.90
56512;DHT22;42408;53.238;5.686;2023-02-24T04:20:24;5.40;99.90
56512;DHT22;42408;53.238;5.686;2023-02-24T04:23:02;5.40;99.90
56512;DHT22;42408;53.238;5.686;2023-02-24T04:25:29;5.40;99.90
56512;DHT22;42408;53.238;5.686;2023-02-24T04:27:58;5.40;99.90
56512;DHT22;42408;53.238;5.686;2023-02-24T04:30:28;5.40;99.90
56512;DHT22;42408;53.238;5.686;2023-02-24T04:32:55;5.40;99.90
56512;DHT22;42408;53.238;5.686;2023-02-24T04:35:21;5.40;99.90
56512;DHT22;42408;53.238;5.686;2023-02-24T04:37:48;5.50;99.90
56512;DHT22;42408;53.238;5.686;2023-02-24T04:40:17;5.50;99.90
56512;DHT22;42408;53.238;5.686;2023-02-24T04:42:47;5.50;99.90
56512;DHT22;42408;53.238;5.686;2023-02-24T04:45:28;5.50;99.90
56512;DHT22;42408;53.238;5.686;2023-02-24T04:47:56;5.50;99.90
56512;DHT22;42408;53.238;5.686;2023-02-24T04:50:27;5.50;99.90
56512;DHT22;42408;53.238;5.686;2023-02-24T04:52:58;5.60;99.90
56512;DHT22;42408;53.238;5.686;2023-02-24T04:55:26;5.50;99.90
56512;DHT22;42408;53.238;5.686;2023-02-24T04:57:59;5.60;99.90
56512;DHT22;42408;53.238;5.686;2023-02-24T05:00:25;5.90;99.90
56512;DHT22;42408;53.238;5.686;2023-02-24T05:02:54;5.60;99.90
56512;DHT22;42408;53.238;5.686;2023-02-24T05:05:22;5.60;99.90
56512;DHT22;42408;53.238;5.686;2023-02-24T05:08:08;5.60;99.90
56512;DHT22;42408;53.238;5.686;2023-02-24T05:10:39;5.60;99.90
56512;DHT22;42408;53.238;5.686;2023-02-24T05:13:06;5.70;99.90
56512;DHT22;42408;53.238;5.686;2023-02-24T05:15:32;5.90;99.90
56512;DHT22;42408;53.238;5.686;2023-02-24T05:17:58;5.50;99.90
56512;DHT22;42408;53.238;5.686;2023-02-24T05:20:28;5.50;99.90
56512;DHT22;42408;53.238;5.686;2023-02-24T05:23:12;5.50;99.90
56512;DHT22;42408;53.238;5.686;2023-02-24T05:25:38;5.50;99.90
56512;DHT22;42408;53.238;5.686;2023-02-24T05:28:07;5.50;99.90
56512;DHT22;42408;53.238;5.686;2023-02-24T05:30:33;5.60;99.90
56512;DHT22;42408;53.238;5.686;2023-02-24T05:33:00;5.50;99.90
56512;DHT22;42408;53.238;5.686;2023-02-24T05:35:25;5.50;99.90
56512;DHT22;42408;53.238;5.686;2023-02-24T05:37:51;5.60;99.90
56512;DHT22;42408;53.238;5.686;2023-02-24T05:40:17;5.60;99.90
56512;DHT22;42408;53.238;5.686;2023-02-24T05:42:47;5.60;99.90
56512;DHT22;42408;53.238;5.686;2023-02-24T05:45:14;5.60;99.90
56512;DHT22;42408;53.238;5.686;2023-02-24T05:47:39;5.50;99.90
56512;DHT22;42408;53.238;5.686;2023-02-24T05:50:06;5.50;99.90
56512;DHT22;42408;53.238;5.686;2023-02-24T05:52:34;5.60;99.90
56512;DHT22;42408;53.238;5.686;2023-02-24T05:55:01;5.50;99.90
56512;DHT22;42408;53.238;5.686;2023-02-24T05:57:31;5.50;99.90
56512;DHT22;42408;53.238;5.686;2023-02-24T06:00:00;5.50;99.90
56512;DHT22;42408;53.238;5.686;2023-02-24T06:02:35;5.50;99.90
56512;DHT22;42408;53.238;5.686;2023-02-24T06:05:02;5.50;99.90
56512;DHT22;42408;53.238;5.686;2023-02-24T06:07:29;5.40;99.90
56512;DHT22;42408;53.238;5.686;2023-02-24T06:10:00;5.40;99.90
56512;DHT22;42408;53.238;5.686;2023-02-24T06:12:31;5.40;99.90
56512;DHT22;42408;53.238;5.686;2023-02-24T06:14:58;5.40;99.90
56512;DHT22;42408;53.238;5.686;2023-02-24T06:17:24;5.40;99.90
56512;DHT22;42408;53.238;5.686;2023-02-24T06:19:51;5.40;99.90
56512;DHT22;42408;53.238;5.686;2023-02-24T06:24:48;5.50;99.90
56512;DHT22;42408;53.238;5.686;2023-02-24T06:27:16;5.40;99.90
56512;DHT22;42408;53.238;5.686;2023-02-24T06:29:47;5.50;99.90
56512;DHT22;42408;53.238;5.686;2023-02-24T06:32:15;5.50;99.90
56512;DHT22;42408;53.238;5.686;2023-02-24T06:34:41;5.50;99.90
56512;DHT22;42408;53.238;5.686;2023-02-24T06:37:09;5.50;99.90
56512;DHT22;42408;53.238;5.686;2023-02-24T06:39:35;5.50;99.90
56512;DHT22;42408;53.238;5.686;2023-02-24T06:42:02;5.50;99.90
56512;DHT22;42408;53.238;5.686;2023-02-24T06:44:33;5.50;99.90
56512;DHT22;42408;53.238;5.686;2023-02-24T06:46:59;5.50;99.90
56512;DHT22;42408;53.238;5.686;2023-02-24T06:49:25;5.50;99.90
56512;DHT22;42408;53.238;5.686;2023-02-24T06:51:54;5.60;99.90
56512;DHT22;42408;53.238;5.686;2023-02-24T06:54:21;5.60;99.90
56512;DHT22;42408;53.238;5.686;2023-02-24T06:56:48;5.50;99.90
56512;DHT22;42408;53.238;5.686;2023-02-24T06:59:13;5.50;99.90
56512;DHT22;42408;53.238;5.686;2023-02-24T07:01:46;5.60;99.90
56512;DHT22;42408;53.238;5.686;2023-02-24T07:04:13;5.50;99.90
56512;DHT22;42408;53.238;5.686;2023-02-24T07:06:40;5.60;99.90
56512;DHT22;42408;53.238;5.686;2023-02-24T07:09:09;5.60;99.90
56512;DHT22;42408;53.238;5.686;2023-02-24T07:11:36;5.60;99.90
56512;DHT22;42408;53.238;5.686;2023-02-24T07:14:02;5.60;99.90
56512;DHT22;42408;53.238;5.686;2023-02-24T07:16:30;5.70;99.90
56512;DHT22;42408;53.238;5.686;2023-02-24T07:19:03;5.70;99.90
56512;DHT22;42408;53.238;5.686;2023-02-24T07:21:30;5.70;99.90
56512;DHT22;42408;53.238;5.686;2023-02-24T07:24:05;5.70;99.90
56512;DHT22;42408;53.238;5.686;2023-02-24T07:26:31;5.70;99.90
56512;DHT22;42408;53.238;5.686;2023-02-24T07:28:58;5.70;99.90
56512;DHT22;42408;53.238;5.686;2023-02-24T07:31:29;5.70;99.90
56512;DHT22;42408;53.238;5.686;2023-02-24T07:33:56;5.80;99.90
56512;DHT22;42408;53.238;5.686;2023-02-24T07:36:23;5.80;99.90
56512;DHT22;42408;53.238;5.686;2023-02-24T07:38:53;5.90;99.90
56512;DHT22;42408;53.238;5.686;2023-02-24T07:41:20;5.80;99.90
56512;DHT22;42408;53.238;5.686;2023-02-24T07:43:48;5.80;99.90
56512;DHT22;42408;53.238;5.686;2023-02-24T07:46:17;5.80;99.90
56512;DHT22;42408;53.238;5.686;2023-02-24T07:48:50;5.90;99.90
56512;DHT22;42408;53.238;5.686;2023-02-24T07:51:18;5.90;99.90
56512;DHT22;42408;53.238;5.686;2023-02-24T07:53:48;5.90;99.90
56512;DHT22;42408;53.238;5.686;2023-02-24T07:56:15;5.90;99.90
56512;DHT22;42408;53.238;5.686;2023-02-24T07:58:44;6.00;99.90
56512;DHT22;42408;53.238;5.686;2023-02-24T08:01:12;6.00;99.90
56512;DHT22;42408;53.238;5.686;2023-02-24T08:03:48;6.00;99.90
56512;DHT22;42408;53.238;5.686;2023-02-24T08:06:16;6.00;99.90
56512;DHT22;42408;53.238;5.686;2023-02-24T08:08:53;6.00;99.90
56512;DHT22;42408;53.238;5.686;2023-02-24T08:11:42;6.10;99.90
56512;DHT22;42408;53.238;5.686;2023-02-24T08:14:11;6.10;99.90
56512;DHT22;42408;53.238;5.686;2023-02-24T08:16:46;6.10;99.90
56512;DHT22;42408;53.238;5.686;2023-02-24T08:19:15;6.20;99.90
56512;DHT22;42408;53.238;5.686;2023-02-24T08:21:47;6.20;99.90
56512;DHT22;42408;53.238;5.686;2023-02-24T08:24:23;6.20;99.90
56512;DHT22;42408;53.238;5.686;2023-02-24T08:26:55;6.30;99.90
56512;DHT22;42408;53.238;5.686;2023-02-24T08:29:34;6.30;99.90
56512;DHT22;42408;53.238;5.686;2023-02-24T08:32:08;6.30;99.90
56512;DHT22;42408;53.238;5.686;2023-02-24T08:34:35;6.40;99.90
56512;DHT22;42408;53.238;5.686;2023-02-24T08:37:01;6.40;99.90
56512;DHT22;42408;53.238;5.686;2023-02-24T08:39:27;6.50;99.90
56512;DHT22;42408;53.238;5.686;2023-02-24T08:41:57;6.50;99.90
56512;DHT22;42408;53.238;5.686;2023-02-24T08:44:23;6.50;99.90
56512;DHT22;42408;53.238;5.686;2023-02-24T08:46:52;6.60;99.90
56512;DHT22;42408;53.238;5.686;2023-02-24T08:49:19;6.60;99.90
56512;DHT22;42408;53.238;5.686;2023-02-24T08:51:47;6.60;99.90
56512;DHT22;42408;53.238;5.686;2023-02-24T08:54:17;6.70;99.90
56512;DHT22;42408;53.238;5.686;2023-02-24T08:56:45;6.60;99.90
56512;DHT22;42408;53.238;5.686;2023-02-24T08:59:21;6.70;99.90
56512;DHT22;42408;53.238;5.686;2023-02-24T09:02:04;6.60;99.90
56512;DHT22;42408;53.238;5.686;2023-02-24T09:04:44;6.60;99.90
56512;DHT22;42408;53.238;5.686;2023-02-24T09:07:18;6.70;99.90
56512;DHT22;42408;53.238;5.686;2023-02-24T09:09:45;6.70;99.90
56512;DHT22;42408;53.238;5.686;2023-02-24T09:12:12;6.80;99.90
56512;DHT22;42408;53.238;5.686;2023-02-24T09:14:51;6.80;99.90
56512;DHT22;42408;53.238;5.686;2023-02-24T09:17:24;6.80;99.90
56512;DHT22;42408;53.238;5.686;2023-02-24T09:20:10;6.90;99.90
56512;DHT22;42408;53.238;5.686;2023-02-24T09:22:56;7.10;99.90
56512;DHT22;42408;53.238;5.686;2023-02-24T09:25:25;7.30;99.90
56512;DHT22;42408;53.238;5.686;2023-02-24T09:30:58;7.70;99.90
56512;DHT22;42408;53.238;5.686;2023-02-24T09:33:42;7.80;99.90
56512;DHT22;42408;53.238;5.686;2023-02-24T09:36:17;7.80;99.90
56512;DHT22;42408;53.238;5.686;2023-02-24T09:38:57;7.80;99.90
56512;DHT22;42408;53.238;5.686;2023-02-24T09:41:45;7.90;99.90
56512;DHT22;42408;53.238;5.686;2023-02-24T09:44:34;7.90;99.90
56512;DHT22;42408;53.238;5.686;2023-02-24T09:47:17;7.90;99.90
56512;DHT22;42408;53.238;5.686;2023-02-24T09:50:02;7.90;99.90
56512;DHT22;42408;53.238;5.686;2023-02-24T09:52:30;8.00;99.90
56512;DHT22;42408;53.238;5.686;2023-02-24T09:55:34;8.00;99.90
56512;DHT22;42408;53.238;5.686;2023-02-24T09:58:36;8.20;99.90
56512;DHT22;42408;53.238;5.686;2023-02-24T10:01:28;8.30;99.90
56512;DHT22;42408;53.238;5.686;2023-02-24T10:07:03;8.50;99.90
56512;DHT22;42408;53.238;5.686;2023-02-24T10:12:24;8.60;99.90
56512;DHT22;42408;53.238;5.686;2023-02-24T10:15:13;8.50;99.90
56512;DHT22;42408;53.238;5.686;2023-02-24T10:17:54;8.50;99.90
56512;DHT22;42408;53.238;5.686;2023-02-24T10:20:23;8.60;99.90
56512;DHT22;42408;53.238;5.686;2023-02-24T10:26:11;8.60;99.90
56512;DHT22;42408;53.238;5.686;2023-02-24T10:28:54;8.60;99.90
56512;DHT22;42408;53.238;5.686;2023-02-24T10:31:29;8.60;99.90
56512;DHT22;42408;53.238;5.686;2023-02-24T10:34:10;8.70;99.90
56512;DHT22;42408;53.238;5.686;2023-02-24T10:36:36;8.70;99.90
56512;DHT22;42408;53.238;5.686;2023-02-24T10:41:51;8.80;99.90
56512;DHT22;42408;53.238;5.686;2023-02-24T10:44:26;8.90;99.90
56512;DHT22;42408;53.238;5.686;2023-02-24T10:47:11;9.00;99.90
56512;DHT22;42408;53.238;5.686;2023-02-24T10:49:45;9.10;99.90
56512;DHT22;42408;53.238;5.686;2023-02-24T10:58:29;9.40;99.90
56512;DHT22;42408;53.238;5.686;2023-02-24T11:01:30;9.40;99.90
56512;DHT22;42408;53.238;5.686;2023-02-24T11:04:15;9.40;99.90
56512;DHT22;42408;53.238;5.686;2023-02-24T11:07:05;9.60;99.90
56512;DHT22;42408;53.238;5.686;2023-02-24T11:09:35;9.70;99.90
56512;DHT22;42408;53.238;5.686;2023-02-24T11:12:12;9.80;99.90
56512;DHT22;42408;53.238;5.686;2023-02-24T11:15:01;9.80;99.90
56512;DHT22;42408;53.238;5.686;2023-02-24T11:17:47;9.80;99.90
56512;DHT22;42408;53.238;5.686;2023-02-24T11:22:50;9.80;99.90
56512;DHT22;42408;53.238;5.686;2023-02-24T11:25:45;9.70;99.90
56512;DHT22;42408;53.238;5.686;2023-02-24T11:33:51;9.10;99.90
56512;DHT22;42408;53.238;5.686;2023-02-24T11:36:26;9.00;99.90
56512;DHT22;42408;53.238;5.686;2023-02-24T11:41:40;8.90;99.90
56512;DHT22;42408;53.238;5.686;2023-02-24T11:44:23;8.80;99.90
56512;DHT22;42408;53.238;5.686;2023-02-24T11:46:56;8.70;99.90
56512;DHT22;42408;53.238;5.686;2023-02-24T11:49:28;8.60;99.90
56512;DHT22;42408;53.238;5.686;2023-02-24T11:51:56;8.70;99.90
56512;DHT22;42408;53.238;5.686;2023-02-24T11:54:23;8.80;99.90
56512;DHT22;42408;53.238;5.686;2023-02-24T11:56:55;9.10;99.90
56512;DHT22;42408;53.238;5.686;2023-02-24T11:59:36;9.30;99.90
56512;DHT22;42408;53.238;5.686;2023-02-24T12:02:16;9.40;99.90
56512;DHT22;42408;53.238;5.686;2023-02-24T12:04:55;9.40;99.90
56512;DHT22;42408;53.238;5.686;2023-02-24T12:07:56;9.40;99.90
56512;DHT22;42408;53.238;5.686;2023-02-24T12:13:11;9.40;99.90
56512;DHT22;42408;53.238;5.686;2023-02-24T12:15:47;9.40;99.90
56512;DHT22;42408;53.238;5.686;2023-02-24T12:18:25;9.40;99.90
56512;DHT22;42408;53.238;5.686;2023-02-24T12:20:56;9.40;99.90
56512;DHT22;42408;53.238;5.686;2023-02-24T12:23:36;9.40;99.90
56512;DHT22;42408;53.238;5.686;2023-02-24T12:26:23;9.40;99.90
56512;DHT22;42408;53.238;5.686;2023-02-24T12:32:14;9.50;99.90
56512;DHT22;42408;53.238;5.686;2023-02-24T12:38:03;9.50;99.90
56512;DHT22;42408;53.238;5.686;2023-02-24T12:40:45;9.60;99.90
56512;DHT22;42408;53.238;5.686;2023-02-24T12:43:41;9.50;99.90
56512;DHT22;42408;53.238;5.686;2023-02-24T12:46:22;9.40;99.90
56512;DHT22;42408;53.238;5.686;2023-02-24T12:51:36;9.20;99.90
56512;DHT22;42408;53.238;5.686;2023-02-24T12:54:20;9.30;99.90
56512;DHT22;42408;53.238;5.686;2023-02-24T12:59:31;9.30;99.90
56512;DHT22;42408;53.238;5.686;2023-02-24T13:05:06;9.40;99.90
56512;DHT22;42408;53.238;5.686;2023-02-24T13:13:41;9.40;99.90
56512;DHT22;42408;53.238;5.686;2023-02-24T13:15:52;9.40;99.90
56512;DHT22;42408;53.238;5.686;2023-02-24T13:18:32;9.50;99.90
56512;DHT22;42408;53.238;5.686;2023-02-24T13:23:34;9.30;99.90
56512;DHT22;42408;53.238;5.686;2023-02-24T13:26:00;9.20;99.90
56512;DHT22;42408;53.238;5.686;2023-02-24T13:28:30;9.20;99.90
56512;DHT22;42408;53.238;5.686;2023-02-24T13:31:09;9.10;99.90
56512;DHT22;42408;53.238;5.686;2023-02-24T13:33:43;9.20;99.90
56512;DHT22;42408;53.238;5.686;2023-02-24T13:36:15;9.20;99.90
56512;DHT22;42408;53.238;5.686;2023-02-24T13:38:46;9.20;99.90
56512;DHT22;42408;53.238;5.686;2023-02-24T13:44:03;9.20;99.90
56512;DHT22;42408;53.238;5.686;2023-02-24T13:47:04;9.10;99.90
56512;DHT22;42408;53.238;5.686;2023-02-24T13:50:09;9.10;99.90
56512;DHT22;42408;53.238;5.686;2023-02-24T13:58:06;8.90;99.90
56512;DHT22;42408;53.238;5.686;2023-02-24T14:01:04;8.80;99.90
56512;DHT22;42408;53.238;5.686;2023-02-24T14:03:31;8.60;99.90
56512;DHT22;42408;53.238;5.686;2023-02-24T14:05:58;8.60;99.90
56512;DHT22;42408;53.238;5.686;2023-02-24T14:08:41;8.50;99.90
56512;DHT22;42408;53.238;5.686;2023-02-24T14:11:12;8.50;99.90
56512;DHT22;42408;53.238;5.686;2023-02-24T14:13:47;8.50;99.90
56512;DHT22;42408;53.238;5.686;2023-02-24T14:16:18;8.50;99.90
56512;DHT22;42408;53.238;5.686;2023-02-24T14:18:55;8.50;99.90
56512;DHT22;42408;53.238;5.686;2023-02-24T14:21:23;8.60;99.90
56512;DHT22;42408;53.238;5.686;2023-02-24T14:23:58;8.60;99.90
56512;DHT22;42408;53.238;5.686;2023-02-24T14:26:24;8.60;99.90
56512;DHT22;42408;53.238;5.686;2023-02-24T14:28:55;8.60;99.90
56512;DHT22;42408;53.238;5.686;2023-02-24T14:31:23;8.50;99.90
56512;DHT22;42408;53.238;5.686;2023-02-24T14:33:55;8.50;99.90
56512;DHT22;42408;53.238;5.686;2023-02-24T14:36:26;8.40;99.90
56512;DHT22;42408;53.238;5.686;2023-02-24T14:41:48;8.30;99.90
56512;DHT22;42408;53.238;5.686;2023-02-24T14:44:24;8.10;99.90
56512;DHT22;42408;53.238;5.686;2023-02-24T14:46:56;7.90;99.90
56512;DHT22;42408;53.238;5.686;2023-02-24T14:49:32;7.80;99.90
56512;DHT22;42408;53.238;5.686;2023-02-24T14:55:41;7.60;99.90
56512;DHT22;42408;53.238;5.686;2023-02-24T15:00:19;7.80;99.90
56512;DHT22;42408;53.238;5.686;2023-02-24T15:02:54;7.70;99.90
56512;DHT22;42408;53.238;5.686;2023-02-24T15:05:21;7.60;99.90
56512;DHT22;42408;53.238;5.686;2023-02-24T15:07:47;7.50;99.90
56512;DHT22;42408;53.238;5.686;2023-02-24T15:10:22;7.50;99.90
56512;DHT22;42408;53.238;5.686;2023-02-24T15:13:25;7.40;99.90
56512;DHT22;42408;53.238;5.686;2023-02-24T15:15:44;7.40;99.90
56512;DHT22;42408;53.238;5.686;2023-02-24T15:18:24;7.30;99.90
56512;DHT22;42408;53.238;5.686;2023-02-24T15:21:02;7.30;99.90
56512;DHT22;42408;53.238;5.686;2023-02-24T15:23:32;7.30;99.90
56512;DHT22;42408;53.238;5.686;2023-02-24T15:25:58;7.20;99.90
56512;DHT22;42408;53.238;5.686;2023-02-24T15:28:29;7.30;99.90
56512;DHT22;42408;53.238;5.686;2023-02-24T15:33:38;7.20;99.90
56512;DHT22;42408;53.238;5.686;2023-02-24T15:36:09;7.20;99.90
56512;DHT22;42408;53.238;5.686;2023-02-24T15:38:38;7.20;99.90
56512;DHT22;42408;53.238;5.686;2023-02-24T15:41:06;7.10;99.90
56512;DHT22;42408;53.238;5.686;2023-02-24T15:43:52;7.20;99.90
56512;DHT22;42408;53.238;5.686;2023-02-24T15:46:26;7.10;99.90
56512;DHT22;42408;53.238;5.686;2023-02-24T15:48:54;7.10;99.90
56512;DHT22;42408;53.238;5.686;2023-02-24T15:51:42;7.30;99.90
56512;DHT22;42408;53.238;5.686;2023-02-24T15:54:15;7.20;99.90
56512;DHT22;42408;53.238;5.686;2023-02-24T15:56:41;7.20;99.90
56512;DHT22;42408;53.238;5.686;2023-02-24T15:59:08;7.30;99.90
56512;DHT22;42408;53.238;5.686;2023-02-24T16:01:34;7.20;99.90
56512;DHT22;42408;53.238;5.686;2023-02-24T16:04:01;7.10;99.90
56512;DHT22;42408;53.238;5.686;2023-02-24T16:06:29;7.00;99.90
56512;DHT22;42408;53.238;5.686;2023-02-24T16:08:56;7.00;99.90
56512;DHT22;42408;53.238;5.686;2023-02-24T16:11:26;6.90;99.90
56512;DHT22;42408;53.238;5.686;2023-02-24T16:13:59;6.80;99.90
56512;DHT22;42408;53.238;5.686;2023-02-24T16:16:25;6.80;99.90
56512;DHT22;42408;53.238;5.686;2023-02-24T16:18:51;6.80;99.90
56512;DHT22;42408;53.238;5.686;2023-02-24T16:21:17;6.80;99.90
56512;DHT22;42408;53.238;5.686;2023-02-24T16:23:43;6.80;99.90
56512;DHT22;42408;53.238;5.686;2023-02-24T16:26:18;6.80;99.90
56512;DHT22;42408;53.238;5.686;2023-02-24T16:28:55;6.80;99.90
56512;DHT22;42408;53.238;5.686;2023-02-24T16:31:22;6.80;99.90
56512;DHT22;42408;53.238;5.686;2023-02-24T16:33:49;6.90;99.90
56512;DHT22;42408;53.238;5.686;2023-02-24T16:36:14;6.90;99.90
56512;DHT22;42408;53.238;5.686;2023-02-24T16:38:41;6.90;99.90
56512;DHT22;42408;53.238;5.686;2023-02-24T16:41:09;6.90;99.90
56512;DHT22;42408;53.238;5.686;2023-02-24T16:43:35;6.90;99.90
56512;DHT22;42408;53.238;5.686;2023-02-24T16:46:04;6.90;99.90
56512;DHT22;42408;53.238;5.686;2023-02-24T16:48:32;6.90;99.90
56512;DHT22;42408;53.238;5.686;2023-02-24T16:51:03;6.90;99.90
56512;DHT22;42408;53.238;5.686;2023-02-24T16:53:30;6.90;99.90
56512;DHT22;42408;53.238;5.686;2023-02-24T16:55:56;6.80;99.90
56512;DHT22;42408;53.238;5.686;2023-02-24T16:58:22;6.80;99.90
56512;DHT22;42408;53.238;5.686;2023-02-24T17:00:50;6.70;99.90
56512;DHT22;42408;53.238;5.686;2023-02-24T17:03:25;6.60;99.90
56512;DHT22;42408;53.238;5.686;2023-02-24T17:05:52;6.50;99.90
56512;DHT22;42408;53.238;5.686;2023-02-24T17:08:18;6.50;99.90
56512;DHT22;42408;53.238;5.686;2023-02-24T17:10:44;6.50;99.90
56512;DHT22;42408;53.238;5.686;2023-02-24T17:13:16;6.40;99.90
56512;DHT22;42408;53.238;5.686;2023-02-24T17:15:41;6.40;99.90
56512;DHT22;42408;53.238;5.686;2023-02-24T17:18:08;6.40;99.90
56512;DHT22;42408;53.238;5.686;2023-02-24T17:20:34;6.40;99.90
56512;DHT22;42408;53.238;5.686;2023-02-24T17:23:00;6.40;99.90
56512;DHT22;42408;53.238;5.686;2023-02-24T17:25:27;6.40;99.90
56512;DHT22;42408;53.238;5.686;2023-02-24T17:27:55;6.40;99.90
56512;DHT22;42408;53.238;5.686;2023-02-24T17:30:26;6.40;99.90
56512;DHT22;42408;53.238;5.686;2023-02-24T17:32:53;6.40;99.90
56512;DHT22;42408;53.238;5.686;2023-02-24T17:35:19;6.50;99.90
56512;DHT22;42408;53.238;5.686;2023-02-24T17:37:45;6.70;99.90
56512;DHT22;42408;53.238;5.686;2023-02-24T17:40:12;6.50;99.90
56512;DHT22;42408;53.238;5.686;2023-02-24T17:42:38;6.40;99.90
56512;DHT22;42408;53.238;5.686;2023-02-24T17:45:05;6.40;99.90
56512;DHT22;42408;53.238;5.686;2023-02-24T17:47:32;6.30;99.90
56512;DHT22;42408;53.238;5.686;2023-02-24T17:49:59;6.20;99.90
56512;DHT22;42408;53.238;5.686;2023-02-24T17:52:24;6.10;99.90
56512;DHT22;42408;53.238;5.686;2023-02-24T17:54:50;6.10;99.90
56512;DHT22;42408;53.238;5.686;2023-02-24T17:57:16;6.10;99.90
56512;DHT22;42408;53.238;5.686;2023-02-24T17:59:42;6.00;99.90
56512;DHT22;42408;53.238;5.686;2023-02-24T18:02:11;6.10;99.90
56512;DHT22;42408;53.238;5.686;2023-02-24T18:04:37;6.10;99.90
56512;DHT22;42408;53.238;5.686;2023-02-24T18:07:03;6.10;99.90
56512;DHT22;42408;53.238;5.686;2023-02-24T18:09:29;6.00;99.90